Time;durP1;ratioP1;P1;durP2;ratioP2;P2;SDS_P1;SDS_P2;PMS_P1;PMS_P2;Temp;Humidity;BMP_temperature;BMP_pressure;BME280_temperature;BME280_humidity;BME280_pressure;Samples;Min_cycle;Max_cycle;Signal;HPM_P1;HPM_P2
2024/02/16 00:00:44;;;;;;;;;0.00;0.00;;;;;18.48;100.00;100668.72;5081221;28;47137;-80
2024/02/16 00:03:09;;;;;;;;;0.00;0.00;;;;;18.45;100.00;100667.13;5078445;28;45399;-80
2024/02/16 00:05:36;;;;;;;;;0.00;0.00;;;;;18.43;100.00;100665.53;5078234;28;45422;-80
2024/02/16 00:08:02;;;;;;;;;0.00;0.00;;;;;18.45;100.00;100671.56;5077864;27;46641;-80
2024/02/16 00:10:28;;;;;;;;;0.00;0.00;;;;;18.46;100.00;100671.47;5077912;28;45410;-79
2024/02/16 00:12:53;;;;;;;;;0.00;0.00;;;;;18.49;100.00;100673.06;5078295;27;45444;-80
2024/02/16 00:15:19;;;;;;;;;0.00;0.00;;;;;18.48;100.00;100672.22;5076612;27;70758;-80
2024/02/16 00:17:44;;;;;;;;;0.00;0.00;;;;;18.54;100.00;100666.53;5077063;27;71386;-79
2024/02/16 00:20:12;;;;;;;;;0.00;0.00;;;;;18.57;100.00;100673.41;5077196;28;73071;-80
2024/02/16 00:22:38;;;;;;;;;0.00;0.00;;;;;18.55;100.00;100680.56;5077934;27;45373;-80
2024/02/16 00:25:03;;;;;;;;;0.00;0.00;;;;;18.63;100.00;100662.50;5077731;27;45637;-79
2024/02/16 00:27:29;;;;;;;;;0.00;0.00;;;;;18.68;100.00;100670.94;5077634;28;47273;-80
2024/02/16 00:29:54;;;;;;;;;0.00;0.00;;;;;18.76;100.00;100665.19;5077396;28;45461;-80
2024/02/16 00:32:20;;;;;;;;;0.00;0.00;;;;;18.73;100.00;100660.94;5076722;28;45391;-80
2024/02/16 00:34:45;;;;;;;;;0.00;0.00;;;;;18.73;100.00;100662.75;5075281;28;70140;-80
2024/02/16 00:37:11;;;;;;;;;0.00;0.00;;;;;18.70;100.00;100662.91;5077703;28;45356;-81
2024/02/16 00:39:40;;;;;;;;;0.00;0.00;;;;;18.74;100.00;100667.06;5077446;28;45312;-80
2024/02/16 00:42:06;;;;;;;;;0.00;0.00;;;;;18.82;100.00;100670.09;5077876;27;45220;-80
2024/02/16 00:44:31;;;;;;;;;0.00;0.00;;;;;18.81;100.00;100673.66;5076109;28;45451;-80
2024/02/16 00:46:57;;;;;;;;;0.00;0.00;;;;;18.79;100.00;100678.16;5076201;28;73684;-80
2024/02/16 00:49:22;;;;;;;;;0.00;0.00;;;;;18.80;100.00;100684.28;5075825;28;70376;-80
2024/02/16 00:51:47;;;;;;;;;0.00;0.00;;;;;18.77;100.00;100685.31;5076412;27;69553;-79
2024/02/16 00:54:13;;;;;;;;;0.00;0.00;;;;;18.78;100.00;100694.94;5077400;28;45174;-80
2024/02/16 00:56:38;;;;;;;;;0.00;0.00;;;;;18.79;100.00;100698.41;5077190;28;45394;-80
2024/02/16 00:59:04;;;;;;;;;0.00;0.00;;;;;18.76;100.00;100707.38;5076852;28;45328;-80
2024/02/16 01:01:29;;;;;;;;;0.00;0.00;;;;;18.74;100.00;100698.72;5077279;28;45394;-80
2024/02/16 01:03:55;;;;;;;;;0.00;0.00;;;;;18.77;100.00;100701.13;5076423;28;65467;-80
2024/02/16 01:06:20;;;;;;;;;0.00;0.00;;;;;18.79;100.00;100699.25;5075452;28;54774;-80
2024/02/16 01:08:49;;;;;;;;;0.00;0.00;;;;;18.80;100.00;100694.84;5076613;28;57219;-80
2024/02/16 01:11:14;;;;;;;;;0.00;0.00;;;;;18.80;100.00;100705.38;5077551;28;45331;-80
2024/02/16 01:13:40;;;;;;;;;0.00;0.00;;;;;18.70;100.00;100698.06;5076897;28;45270;-80
2024/02/16 01:16:05;;;;;;;;;0.00;0.00;;;;;18.74;100.00;100693.44;5074670;28;73026;-80
2024/02/16 01:18:32;;;;;;;;;0.00;0.00;;;;;18.75;100.00;100693.31;5076718;28;45368;-80
2024/02/16 01:20:58;;;;;;;;;0.00;0.00;;;;;18.76;100.00;100710.84;5075860;28;45447;-80
2024/02/16 01:23:23;;;;;;;;;0.00;0.00;;;;;18.76;100.00;100697.66;5076428;28;45415;-80
2024/02/16 01:25:49;;;;;;;;;0.00;0.00;;;;;18.67;100.00;100698.25;5075725;27;70530;-80
2024/02/16 01:28:16;;;;;;;;;0.00;0.00;;;;;18.71;100.00;100694.47;5076342;27;45482;-80
2024/02/16 01:30:41;;;;;;;;;0.00;0.00;;;;;18.68;100.00;100699.09;5076832;27;45319;-80
2024/02/16 01:33:06;;;;;;;;;0.00;0.00;;;;;18.72;100.00;100688.25;5075810;28;69137;-80
2024/02/16 01:35:33;;;;;;;;;0.00;0.00;;;;;18.71;100.00;100686.56;5076717;27;46056;-80
2024/02/16 01:37:58;;;;;;;;;0.00;0.00;;;;;18.70;100.00;100686.66;5076535;28;45374;-80
2024/02/16 01:40:26;;;;;;;;;1.50;1.50;;;;;18.68;100.00;100685.91;5076742;27;45314;-80
2024/02/16 01:42:55;;;;;;;;;0.00;0.00;;;;;18.68;100.00;100689.38;5077389;28;45337;-79
2024/02/16 01:45:21;;;;;;;;;0.00;0.00;;;;;18.70;100.00;100679.63;5078182;27;45520;-80
2024/02/16 01:47:50;;;;;;;;;0.00;0.00;;;;;18.65;100.00;100701.94;5076539;27;45448;-81
2024/02/16 01:50:17;;;;;;;;;0.00;0.00;;;;;18.65;100.00;100694.03;5075256;28;45413;-81
2024/02/16 01:52:43;;;;;;;;;0.00;0.00;;;;;18.66;100.00;100699.19;5076783;28;45398;-80
2024/02/16 01:55:10;;;;;;;;;1.75;1.75;;;;;18.59;100.00;100695.25;5076597;28;45666;-81
2024/02/16 01:57:44;;;;;;;;;0.00;0.00;;;;;18.60;100.00;100702.22;5074857;28;45457;-80
2024/02/16 02:00:11;;;;;;;;;0.00;0.00;;;;;18.60;100.00;100701.38;5075343;28;45434;-80
2024/02/16 02:02:36;;;;;;;;;0.00;0.00;;;;;18.59;100.00;100695.25;5074183;28;45605;-80
2024/02/16 02:05:03;;;;;;;;;0.00;0.00;;;;;18.60;100.00;100690.84;5075388;28;75564;-80
2024/02/16 02:07:28;;;;;;;;;0.00;0.00;;;;;18.51;100.00;100700.16;5076325;28;45505;-81
2024/02/16 02:09:54;;;;;;;;;0.00;0.00;;;;;18.53;100.00;100698.25;5076360;28;45667;-80
2024/02/16 02:12:20;;;;;;;;;0.00;0.00;;;;;18.56;100.00;100698.91;5075484;28;51828;-80
2024/02/16 02:14:46;;;;;;;;;0.00;0.00;;;;;18.55;100.00;100699.88;5076046;27;46245;-81
2024/02/16 02:17:12;;;;;;;;;0.00;0.00;;;;;18.50;100.00;100706.38;5076248;28;45387;-81
2024/02/16 02:19:37;;;;;;;;;0.00;0.00;;;;;18.54;100.00;100697.34;5076250;28;45347;-81
2024/02/16 02:22:02;;;;;;;;;0.00;0.00;;;;;18.53;100.00;100698.25;5076220;27;45292;-81
2024/02/16 02:24:28;;;;;;;;;0.00;0.00;;;;;18.53;100.00;100706.19;5074571;27;73723;-81
2024/02/16 02:26:53;;;;;;;;;0.00;0.00;;;;;18.54;100.00;100710.53;5074515;28;71905;-80
2024/02/16 02:29:19;;;;;;;;;0.00;0.00;;;;;18.54;100.00;100713.16;5075951;27;45358;-81
2024/02/16 02:31:45;;;;;;;;;0.00;0.00;;;;;18.55;100.00;100710.44;5074799;28;45530;-81
2024/02/16 02:34:10;;;;;;;;;9.00;9.00;;;;;18.57;100.00;100708.53;5057529;28;47282;-81
2024/02/16 02:36:35;;;;;;;;;0.00;0.00;;;;;18.56;100.00;100711.25;5074861;28;73205;-81
2024/02/16 02:39:01;;;;;;;;;0.00;0.00;;;;;18.53;100.00;100714.91;5073769;28;69059;-81
2024/02/16 02:41:26;;;;;;;;;0.00;0.00;;;;;18.56;100.00;100721.81;5074302;28;45505;-80
2024/02/16 02:43:53;;;;;;;;;0.00;0.00;;;;;18.51;100.00;100722.09;5075814;27;46820;-81
2024/02/16 02:46:18;;;;;;;;;0.00;0.00;;;;;18.47;100.00;100722.38;5074375;28;45448;-81
2024/02/16 02:48:44;;;;;;;;;0.00;0.00;;;;;18.45;100.00;100716.38;5075245;28;54851;-81
2024/02/16 02:51:10;;;;;;;;;0.00;0.00;;;;;18.42;100.00;100725.28;5075722;28;45473;-81
2024/02/16 02:53:35;;;;;;;;;0.00;0.00;;;;;18.43;100.00;100719.09;5075226;28;56088;-81
2024/02/16 02:56:01;;;;;;;;;0.00;0.00;;;;;18.41;100.00;100720.97;5074264;28;73052;-82
2024/02/16 02:58:27;;;;;;;;;0.00;0.00;;;;;18.38;100.00;100724.63;5074463;28;45323;-81
2024/02/16 03:00:52;;;;;;;;;0.00;0.00;;;;;18.29;100.00;100725.19;5075581;27;45308;-82
2024/02/16 03:03:17;;;;;;;;;0.00;0.00;;;;;18.35;100.00;100724.84;5073579;28;67469;-81
2024/02/16 03:05:43;;;;;;;;;0.00;0.00;;;;;18.37;100.00;100735.28;5074524;27;72488;-81
2024/02/16 03:08:08;;;;;;;;;0.00;0.00;;;;;18.36;100.00;100752.03;5075344;28;45338;-81
2024/02/16 03:10:34;;;;;;;;;0.00;0.00;;;;;18.33;100.00;100753.06;5075165;28;47010;-81
2024/02/16 03:13:03;;;;;;;;;0.50;0.50;;;;;18.36;100.00;100752.03;5074468;28;47330;-81
2024/02/16 03:15:29;;;;;;;;;0.00;0.00;;;;;18.28;100.00;100757.78;5078641;28;46242;-82
2024/02/16 03:17:55;;;;;;;;;0.00;0.00;;;;;18.26;100.00;100762.28;5078875;28;45317;-80
2024/02/16 03:20:21;;;;;;;;;0.00;0.00;;;;;18.28;100.00;100754.31;5077611;28;45576;-80
2024/02/16 03:22:46;;;;;;;;;0.00;0.00;;;;;18.24;100.00;100758.91;5077248;27;45566;-80
2024/02/16 03:25:12;;;;;;;;;0.00;0.00;;;;;18.22;100.00;100765.19;5077237;27;45394;-79
2024/02/16 03:27:37;;;;;;;;;1.00;0.00;;;;;18.22;100.00;100754.66;5082504;28;45729;-80
2024/02/16 03:30:03;;;;;;;;;0.00;0.00;;;;;18.19;100.00;100753.06;5078814;27;45505;-80
2024/02/16 03:32:28;;;;;;;;;0.00;0.00;;;;;18.27;100.00;100747.31;5078850;27;45523;-80
2024/02/16 03:34:56;;;;;;;;;0.00;0.00;;;;;18.24;100.00;100748.38;5076655;28;71825;-81
2024/02/16 03:37:22;;;;;;;;;5.50;5.50;;;;;18.27;100.00;100742.06;5078577;28;45315;-80
2024/02/16 03:39:47;;;;;;;;;0.00;0.00;;;;;18.24;100.00;100747.50;5077652;27;70508;-81
2024/02/16 03:42:12;;;;;;;;;1.00;1.00;;;;;18.25;100.00;100750.03;5077481;27;74317;-81
2024/02/16 03:44:38;;;;;;;;;0.00;0.00;;;;;18.24;100.00;100750.13;5078372;27;47395;-80
2024/02/16 03:47:03;;;;;;;;;0.00;0.00;;;;;18.21;100.00;100742.44;5077420;27;67188;-80
2024/02/16 03:49:28;;;;;;;;;0.25;0.25;;;;;18.22;100.00;100746.75;5076966;28;45563;-79
2024/02/16 03:51:54;;;;;;;;;0.00;0.00;;;;;18.18;100.00;100749.59;5078339;27;45260;-79
2024/02/16 03:54:19;;;;;;;;;0.00;0.00;;;;;18.21;100.00;100742.44;5077089;28;71413;-81
2024/02/16 03:56:45;;;;;;;;;0.00;0.00;;;;;18.22;100.00;100736.22;5078331;27;45372;-81
2024/02/16 03:59:10;;;;;;;;;0.00;0.00;;;;;18.21;100.00;100748.53;5078296;27;45335;-81
2024/02/16 04:01:36;;;;;;;;;0.00;0.00;;;;;18.16;100.00;100762.00;5078182;28;46204;-81
2024/02/16 04:04:03;;;;;;;;;0.00;0.00;;;;;18.13;100.00;100772.72;5078031;28;45216;-81
2024/02/16 04:06:28;;;;;;;;;0.00;0.00;;;;;18.13;100.00;100758.72;5076798;28;45277;-81
2024/02/16 04:08:54;;;;;;;;;0.00;0.00;;;;;18.16;100.00;100762.00;5077942;28;45379;-81
2024/02/16 04:11:19;;;;;;;;;0.00;0.00;;;;;18.17;100.00;100768.97;5075749;28;74101;-81
2024/02/16 04:13:45;;;;;;;;;0.00;0.00;;;;;18.16;100.00;100766.41;5077918;28;45481;-81
2024/02/16 04:16:10;;;;;;;;;0.00;0.00;;;;;18.17;100.00;100765.47;5076664;28;45445;-81
2024/02/16 04:18:35;;;;;;;;;0.00;0.00;;;;;18.17;100.00;100766.31;5077908;28;45376;-81
2024/02/16 04:21:01;;;;;;;;;0.00;0.00;;;;;18.08;100.00;100780.03;5077582;28;46288;-81
2024/02/16 04:23:26;;;;;;;;;0.00;0.00;;;;;18.12;100.00;100778.06;5077703;27;45396;-81
2024/02/16 04:25:52;;;;;;;;;0.00;0.00;;;;;18.07;100.00;100780.13;5076587;27;53881;-81
2024/02/16 04:28:18;;;;;;;;;0.00;0.00;;;;;18.09;100.00;100801.94;5077648;27;45619;-81
2024/02/16 04:30:44;;;;;;;;;0.00;0.00;;;;;18.04;100.00;100804.03;5077565;27;46637;-80
2024/02/16 04:33:09;;;;;;;;;0.00;0.00;;;;;18.04;100.00;100810.13;5077718;28;45478;-82
2024/02/16 04:35:34;;;;;;;;;0.00;0.00;;;;;18.05;100.00;100816.25;5075635;28;54122;-81
2024/02/16 04:38:00;;;;;;;;;0.00;0.00;;;;;18.03;100.00;100820.75;5077645;28;45355;-81
2024/02/16 04:40:25;;;;;;;;;0.00;0.00;;;;;18.04;100.00;100830.38;5077464;27;46024;-81
2024/02/16 04:42:50;;;;;;;;;0.00;0.00;;;;;18.08;100.00;100848.53;5077353;28;45243;-81
2024/02/16 04:45:16;;;;;;;;;0.00;0.00;;;;;17.96;100.00;100851.91;5077590;28;45332;-83
2024/02/16 04:47:41;;;;;;;;;0.00;0.00;;;;;17.99;100.00;100849.91;5076343;27;70268;-81
2024/02/16 04:50:10;;;;;;;;;0.00;0.00;;;;;18.01;100.00;100862.16;5075604;27;74415;-81
2024/02/16 04:52:36;;;;;;;;;0.00;0.00;;;;;17.99;100.00;100868.34;5077213;27;45387;-81
2024/02/16 04:55:02;;;;;;;;;0.00;0.00;;;;;18.00;100.00;100866.56;5093252;27;45370;-81
2024/02/16 04:57:27;;;;;;;;;0.00;0.00;;;;;17.99;100.00;100870.97;5076232;28;69089;-81
2024/02/16 04:59:52;;;;;;;;;0.00;0.00;;;;;17.99;100.00;100867.50;5076071;28;75415;-81
2024/02/16 05:02:18;;;;;;;;;0.00;0.00;;;;;18.03;100.00;100865.53;5076044;28;73438;-81
2024/02/16 05:04:43;;;;;;;;;0.00;0.00;;;;;18.02;100.00;100875.22;5075777;28;68980;-81
2024/02/16 05:07:09;;;;;;;;;0.00;0.00;;;;;18.02;100.00;100888.41;5076664;28;54836;-81
2024/02/16 05:09:34;;;;;;;;;0.00;0.00;;;;;18.01;100.00;100883.22;5077371;28;46327;-81
2024/02/16 05:12:00;;;;;;;;;0.00;0.00;;;;;18.01;100.00;100881.41;5077690;27;45371;-81
2024/02/16 05:14:25;;;;;;;;;0.00;0.00;;;;;17.94;100.00;100891.47;5076776;27;53716;-81
2024/02/16 05:16:50;;;;;;;;;0.00;0.00;;;;;17.97;100.00;100888.66;5077214;28;45454;-81
2024/02/16 05:19:16;;;;;;;;;0.00;0.00;;;;;18.02;100.00;100887.56;5075249;28;46609;-81
2024/02/16 05:21:41;;;;;;;;;0.00;0.00;;;;;17.88;100.00;100906.78;5077006;28;47046;-81
2024/02/16 05:24:07;;;;;;;;;0.00;0.00;;;;;17.97;100.00;100899.19;5076633;27;45544;-81
2024/02/16 05:26:32;;;;;;;;;0.00;0.00;;;;;17.95;100.00;100898.44;5077033;28;45244;-81
2024/02/16 05:28:57;;;;;;;;;0.00;0.00;;;;;17.95;100.00;100901.06;5075921;27;74137;-81
2024/02/16 05:31:23;;;;;;;;;0.00;0.00;;;;;17.95;100.00;100898.44;5076855;27;48459;-81
2024/02/16 05:33:49;;;;;;;;;0.00;0.00;;;;;17.97;100.00;100901.81;5076410;27;59061;-80
2024/02/16 05:36:24;;;;;;;;;1.00;1.00;;;;;17.90;100.00;100911.00;5058440;28;45733;-81
2024/02/16 05:38:50;;;;;;;;;0.00;0.00;;;;;17.97;100.00;100907.09;5075486;28;47077;-80
2024/02/16 05:41:17;;;;;;;;;0.00;0.00;;;;;17.97;100.00;100907.09;5076801;27;45420;-81
2024/02/16 05:43:43;;;;;;;;;0.00;0.00;;;;;17.92;100.00;100903.88;5075858;28;45447;-81
2024/02/16 05:46:13;;;;;;;;;0.00;0.00;;;;;17.90;100.00;100903.09;5076580;27;45358;-81
2024/02/16 05:48:40;;;;;;;;;0.00;0.00;;;;;17.93;100.00;100908.19;5075042;28;46506;-81
2024/02/16 05:51:05;;;;;;;;;0.00;0.00;;;;;17.93;100.00;100900.31;5075176;28;45380;-80
2024/02/16 05:53:33;;;;;;;;;0.00;0.00;;;;;17.92;100.00;100909.16;5075570;28;45754;-80
2024/02/16 05:55:59;;;;;;;;;0.00;0.00;;;;;17.89;100.00;100908.47;5076792;28;45416;-80
2024/02/16 05:58:25;;;;;;;;;0.00;0.00;;;;;17.84;100.00;100908.69;5076213;28;46369;-80
2024/02/16 06:00:50;;;;;;;;;0.00;0.00;;;;;17.87;100.00;100913.00;5075287;28;45410;-80
2024/02/16 06:03:16;;;;;;;;;0.00;0.00;;;;;17.85;100.00;100913.06;5076064;28;45371;-80
2024/02/16 06:05:43;;;;;;;;;0.00;0.00;;;;;17.84;100.00;100921.03;5076581;28;45668;-80
2024/02/16 06:08:10;;;;;;;;;0.00;0.00;;;;;17.85;100.00;100914.84;5076419;27;45438;-80
2024/02/16 06:10:35;;;;;;;;;0.00;0.00;;;;;17.76;100.00;100924.09;5076486;28;45354;-80
2024/02/16 06:13:00;;;;;;;;;0.00;0.00;;;;;17.73;100.00;100930.34;5076385;28;45387;-80
2024/02/16 06:15:26;;;;;;;;;0.00;0.00;;;;;17.74;100.00;100929.44;5074043;28;68274;-81
2024/02/16 06:17:52;;;;;;;;;0.25;0.25;;;;;17.62;100.00;100940.63;5075727;28;45971;-81
2024/02/16 06:20:18;;;;;;;;;0.00;0.00;;;;;17.77;100.00;100945.06;5076211;28;45354;-80
2024/02/16 06:22:43;;;;;;;;;0.00;0.00;;;;;17.81;100.00;100943.09;5076169;28;45347;-79
2024/02/16 06:25:10;;;;;;;;;0.00;0.00;;;;;17.76;100.00;100948.63;5076103;27;45426;-81
2024/02/16 06:27:36;;;;;;;;;0.00;0.00;;;;;17.80;100.00;100954.56;5075023;27;71780;-80
2024/02/16 06:30:04;;;;;;;;;1.00;1.00;;;;;17.82;100.00;100957.97;5075973;28;45310;-80
2024/02/16 06:32:29;;;;;;;;;0.00;0.00;;;;;17.84;100.00;100969.25;5075845;27;45330;-80
2024/02/16 06:34:55;;;;;;;;;0.00;0.00;;;;;17.86;100.00;100977.09;5076021;27;45346;-80
2024/02/16 06:37:20;;;;;;;;;0.00;0.00;;;;;17.84;100.00;100974.53;5075693;27;45764;-80
2024/02/16 06:39:46;;;;;;;;;0.00;0.00;;;;;17.87;100.00;100984.09;5076039;27;45385;-80
2024/02/16 06:42:12;;;;;;;;;0.00;0.00;;;;;17.87;100.00;100986.72;5075941;27;45425;-80
2024/02/16 06:44:38;;;;;;;;;0.00;0.00;;;;;17.89;100.00;100990.97;5075989;27;45445;-81
2024/02/16 06:47:04;;;;;;;;;0.00;0.00;;;;;17.89;100.00;100990.97;5075452;27;46200;-81
2024/02/16 06:49:29;;;;;;;;;0.00;0.00;;;;;17.88;100.00;100997.16;5078381;27;45502;-81
2024/02/16 06:51:55;;;;;;;;;0.00;0.00;;;;;17.86;100.00;100985.84;5078433;27;70104;-81
2024/02/16 06:54:20;;;;;;;;;0.00;0.00;;;;;17.89;100.00;100992.75;5080718;28;45323;-81
2024/02/16 06:56:45;;;;;;;;;0.00;0.00;;;;;17.85;100.00;100999.09;5078580;27;75184;-81
2024/02/16 06:59:11;;;;;;;;;0.00;0.00;;;;;17.78;100.00;101003.84;5079665;28;45312;-82
2024/02/16 07:01:36;;;;;;;;;0.00;0.00;;;;;17.77;100.00;101008.25;5079099;28;45471;-81
2024/02/16 07:04:01;;;;;;;;;0.00;0.00;;;;;17.78;100.00;101006.47;5078361;28;70313;-82
2024/02/16 07:06:27;;;;;;;;;0.00;0.00;;;;;17.78;100.00;101014.38;5078064;28;75367;-82
2024/02/16 07:08:52;;;;;;;;;0.00;0.00;;;;;17.76;100.00;101018.88;5078162;28;73610;-81
2024/02/16 07:11:18;;;;;;;;;0.00;0.00;;;;;17.71;100.00;101020.91;5077982;28;69283;-80
2024/02/16 07:13:43;;;;;;;;;0.00;0.00;;;;;17.72;100.00;101026.09;5079068;28;45462;-82
2024/02/16 07:16:09;;;;;;;;;0.00;0.00;;;;;17.70;100.00;101025.31;5078709;28;45556;-81
2024/02/16 07:18:35;;;;;;;;;0.00;0.00;;;;;17.69;100.00;101049.09;5079062;28;45418;-80
2024/02/16 07:21:00;;;;;;;;;0.00;0.00;;;;;17.69;100.00;101055.19;5079112;28;45414;-81
2024/02/16 07:23:26;;;;;;;;;3.00;3.00;;;;;17.73;100.00;101055.88;5078788;27;45485;-81
2024/02/16 07:25:55;;;;;;;;;0.00;0.00;;;;;17.82;100.00;101065.06;5060681;28;47102;-81
2024/02/16 07:28:20;;;;;;;;;0.00;0.00;;;;;17.86;100.00;101066.63;5077631;28;45377;-81
2024/02/16 07:30:45;;;;;;;;;0.00;0.00;;;;;17.87;100.00;101081.53;5077083;28;45318;-81
2024/02/16 07:33:11;;;;;;;;;0.00;0.00;;;;;17.95;100.00;101090.69;5077919;27;68297;-80
2024/02/16 07:35:36;;;;;;;;;0.00;0.00;;;;;17.96;100.00;101097.66;5077279;28;46897;-81
2024/02/16 07:38:03;;;;;;;;;0.00;0.00;;;;;17.93;100.00;101102.25;5078433;28;45482;-80
2024/02/16 07:40:28;;;;;;;;;0.00;0.00;;;;;17.97;100.00;101096.72;5077462;28;45328;-80
2024/02/16 07:42:54;;;;;;;;;0.00;0.00;;;;;18.02;100.00;101103.53;5077046;28;56584;-80
2024/02/16 07:45:19;;;;;;;;;0.00;0.00;;;;;18.02;100.00;101111.44;5076785;28;46176;-80
2024/02/16 07:47:45;;;;;;;;;0.00;0.00;;;;;18.03;100.00;101116.59;5078469;28;45370;-81
2024/02/16 07:50:11;;;;;;;;;0.00;0.00;;;;;17.99;100.00;101115.91;5078378;28;45490;-81
2024/02/16 07:52:38;;;;;;;;;0.00;0.00;;;;;17.98;100.00;101114.22;5077321;28;70245;-81
2024/02/16 07:55:04;;;;;;;;;0.00;0.00;;;;;18.00;100.00;101124.69;5077002;28;45497;-81
2024/02/16 07:57:30;;;;;;;;;0.00;0.00;;;;;17.98;100.00;101126.56;5079348;28;45366;-81
2024/02/16 07:59:56;;;;;;;;;0.00;0.00;;;;;18.04;100.00;101122.75;5075863;28;45427;-81
2024/02/16 08:02:21;;;;;;;;;0.00;0.00;;;;;18.01;100.00;101126.38;5078706;28;45327;-81
2024/02/16 08:04:49;;;;;;;;;0.00;0.00;;;;;18.05;100.00;101124.44;5077384;27;75427;-81
2024/02/16 08:07:16;;;;;;;;;0.00;0.00;;;;;18.05;100.00;101121.78;5077566;27;59341;-81
2024/02/16 08:09:44;;;;;;;;;0.00;0.00;;;;;18.08;100.00;101130.38;5078378;27;45417;-81
2024/02/16 08:12:10;;;;;;;;;0.00;0.00;;;;;18.12;100.00;101129.28;5078185;27;45201;-81
2024/02/16 08:14:35;;;;;;;;;0.00;0.00;;;;;18.16;100.00;101136.09;5076749;28;74487;-80
2024/02/16 08:17:00;;;;;;;;;0.00;0.00;;;;;18.12;100.00;101139.81;5078107;28;45261;-81
2024/02/16 08:19:33;;;;;;;;;0.00;0.00;;;;;18.10;100.00;101144.31;5078299;28;45454;-81
2024/02/16 08:21:59;;;;;;;;;0.00;0.00;;;;;18.07;100.00;101151.53;5077013;28;45558;-80
2024/02/16 08:24:25;;;;;;;;;0.00;0.00;;;;;18.09;100.00;101154.94;5077802;27;46092;-80
2024/02/16 08:26:50;;;;;;;;;0.00;0.00;;;;;18.05;100.00;101156.03;5077999;27;45514;-81
2024/02/16 08:29:16;;;;;;;;;0.00;0.00;;;;;18.04;100.00;101159.63;5076742;27;70420;-81
2024/02/16 08:31:41;;;;;;;;;0.00;0.00;;;;;18.01;100.00;101170.31;5077560;27;54812;-80
2024/02/16 08:34:07;;;;;;;;;0.00;0.00;;;;;17.95;100.00;101168.84;5076804;27;76762;-81
2024/02/16 08:36:32;;;;;;;;;0.00;0.00;;;;;17.92;100.00;101164.59;5077745;27;45473;-80
2024/02/16 08:38:57;;;;;;;;;0.00;0.00;;;;;17.95;100.00;101176.75;5078000;27;45352;-80
2024/02/16 08:41:24;;;;;;;;;0.00;0.00;;;;;17.98;100.00;101181.88;5077411;27;54330;-81
2024/02/16 08:43:50;;;;;;;;;0.00;0.00;;;;;18.01;100.00;101186.09;5077151;27;47007;-81
2024/02/16 08:46:15;;;;;;;;;0.00;0.00;;;;;18.02;100.00;101180.75;5077485;28;45307;-81
2024/02/16 08:48:41;;;;;;;;;0.00;0.00;;;;;17.99;100.00;101189.66;5077554;27;45446;-81
2024/02/16 08:51:06;;;;;;;;;0.00;0.00;;;;;17.97;100.00;101183.63;5077505;28;45334;-81
2024/02/16 08:53:31;;;;;;;;;0.00;0.00;;;;;17.92;100.00;101192.69;5076582;27;70835;-81
2024/02/16 08:55:57;;;;;;;;;0.00;0.00;;;;;17.95;100.00;101195.19;5076220;28;73888;-82
2024/02/16 08:58:22;;;;;;;;;0.00;0.00;;;;;17.95;100.00;101203.94;5076089;28;68644;-81
2024/02/16 09:00:49;;;;;;;;;0.00;0.00;;;;;17.98;100.00;101203.78;5075212;28;66119;-81
2024/02/16 09:03:16;;;;;;;;;0.00;0.00;;;;;17.96;100.00;101213.56;5077273;27;47202;-81
2024/02/16 09:05:43;;;;;;;;;0.00;0.00;;;;;17.96;100.00;101210.06;5077229;27;45300;-81
2024/02/16 09:08:09;;;;;;;;;0.00;0.00;;;;;17.93;100.00;101216.34;5077253;28;45340;-81
2024/02/16 09:10:34;;;;;;;;;0.00;0.00;;;;;17.94;100.00;101219.81;5077071;28;45345;-81
2024/02/16 09:12:59;;;;;;;;;0.00;0.00;;;;;17.92;100.00;101229.56;5076724;28;48290;-81
2024/02/16 09:15:25;;;;;;;;;0.00;0.00;;;;;17.92;100.00;101221.69;5076105;28;72197;-81
2024/02/16 09:17:50;;;;;;;;;0.00;0.00;;;;;17.92;100.00;101226.94;5076236;28;66579;-81
2024/02/16 09:20:16;;;;;;;;;0.00;0.00;;;;;17.92;100.00;101225.19;5076938;28;45421;-80
2024/02/16 09:22:41;;;;;;;;;0.00;0.00;;;;;17.93;100.00;101232.13;5076964;27;45380;-80
2024/02/16 09:25:07;;;;;;;;;0.00;0.00;;;;;17.93;100.00;101236.56;5075377;27;45509;-80
2024/02/16 09:27:32;;;;;;;;;0.00;0.00;;;;;18.02;100.00;101240.50;5076679;28;45349;-80
2024/02/16 09:29:57;;;;;;;;;0.00;0.00;;;;;18.07;100.00;101244.59;5076204;27;58223;-80
2024/02/16 09:32:23;;;;;;;;;0.00;0.00;;;;;17.96;100.00;101253.06;5075856;27;74688;-81
2024/02/16 09:34:48;;;;;;;;;0.00;0.00;;;;;17.92;100.00;101248.00;5075992;27;63248;-80
2024/02/16 09:37:13;;;;;;;;;0.67;0.00;;;;;17.88;100.00;101264.91;5075733;28;67913;-80
2024/02/16 09:39:39;;;;;;;;;0.00;0.00;;;;;17.79;100.00;101268.81;5076990;27;45315;-80
2024/02/16 09:42:04;;;;;;;;;0.00;0.00;;;;;17.85;100.00;101267.69;5076670;27;56479;-80
2024/02/16 09:44:30;;;;;;;;;0.00;0.00;;;;;17.84;100.00;101269.44;5075283;28;63161;-80
2024/02/16 09:46:56;;;;;;;;;0.00;0.00;;;;;17.78;100.00;101272.41;5075718;28;45305;-81
2024/02/16 09:49:21;;;;;;;;;1.00;1.00;;;;;17.75;100.00;101278.66;5075300;28;45444;-80
2024/02/16 09:51:46;;;;;;;;;0.00;0.00;;;;;17.75;100.00;101280.44;5074317;28;74396;-80
2024/02/16 09:54:12;;;;;;;;;0.00;0.00;;;;;17.71;100.00;101289.44;5076606;28;45311;-80
2024/02/16 09:56:37;;;;;;;;;0.00;0.00;;;;;17.69;100.00;101301.81;5074972;28;45316;-80
2024/02/16 09:59:03;;;;;;;;;0.00;0.00;;;;;17.63;100.00;101310.88;5076196;27;51368;-80
2024/02/16 10:01:29;;;;;;;;;0.00;0.00;;;;;17.52;100.00;101308.75;5076299;27;45342;-80
2024/02/16 10:04:05;;;;;;;;;0.00;0.00;;;;;17.42;100.00;101313.63;5076563;28;45319;-81
2024/02/16 10:06:30;;;;;;;;;0.00;0.00;;;;;17.31;100.00;101323.81;5076462;28;45487;-80
2024/02/16 10:08:58;;;;;;;;;0.00;0.00;;;;;17.18;100.00;101331.44;5074302;28;68425;-81
2024/02/16 10:11:27;;;;;;;;;1.00;1.00;;;;;17.18;100.00;101343.75;5075834;27;46448;-81
2024/02/16 10:14:01;;;;;;;;;0.00;0.00;;;;;17.15;100.00;101344.72;5076162;28;45347;-80
2024/02/16 10:16:30;;;;;;;;;0.00;0.00;;;;;17.15;100.00;101354.41;5076300;28;45403;-80
2024/02/16 10:19:14;;;;;;;;;0.00;0.00;;;;;17.17;100.00;101361.28;5076526;28;45386;-81
2024/02/16 10:21:40;;;;;;;;;1.00;0.00;;;;;17.19;100.00;101367.34;5075004;28;45481;-79
2024/02/16 10:24:08;;;;;;;;;0.00;0.00;;;;;17.18;100.00;101370.06;5077686;27;45428;-80
2024/02/16 10:26:37;;;;;;;;;0.00;0.00;;;;;17.15;100.00;101381.56;5080130;27;45385;-81
2024/02/16 10:29:03;;;;;;;;;0.00;0.00;;;;;17.04;100.00;101391.72;5079912;27;45332;-82
2024/02/16 10:31:29;;;;;;;;;0.00;0.00;;;;;16.94;100.00;101401.81;5078361;28;45354;-82
2024/02/16 10:34:01;;;;;;;;;1.00;0.00;;;;;16.89;100.00;101411.69;5078682;28;45349;-82
2024/02/16 10:36:28;;;;;;;;;0.00;0.00;;;;;16.90;100.00;101415.16;5079712;28;45326;-81
2024/02/16 10:38:54;;;;;;;;;0.00;0.00;;;;;16.92;100.00;101410.66;5079200;27;45552;-80
2024/02/16 10:41:20;;;;;;;;;0.00;0.00;;;;;16.98;100.00;101415.69;5079376;28;47105;-82
2024/02/16 10:43:47;;;;;;;;;1.00;1.00;;;;;16.99;100.00;101426.13;5079675;27;45410;-82
2024/02/16 10:46:15;;;;;;;;;0.00;0.00;;;;;16.92;100.00;101418.56;5078183;28;45366;-82
2024/02/16 10:48:40;;;;;;;;;0.75;0.75;;;;;16.92;100.00;101426.44;5078341;28;45348;-82
2024/02/16 10:51:07;;;;;;;;;0.00;0.00;;;;;16.97;100.00;101432.38;5078014;27;75556;-79
2024/02/16 10:53:33;;;;;;;;;0.00;0.00;;;;;17.03;100.00;101440.84;5078997;27;45413;-82
2024/02/16 10:56:00;;;;;;;;;0.00;0.00;;;;;17.13;100.00;101445.69;5079442;28;45442;-80
2024/02/16 10:58:27;;;;;;;;;0.00;0.00;;;;;17.17;100.00;101455.16;5078254;28;45516;-80
2024/02/16 11:00:53;;;;;;;;;0.00;0.00;;;;;17.21;100.00;101454.94;5079293;28;47304;-80
2024/02/16 11:03:26;;;;;;;;;0.00;0.00;;;;;17.28;100.00;101470.47;5079159;28;45467;-79
2024/02/16 11:05:52;;;;;;;;;1.50;0.00;;;;;17.25;100.00;101474.06;5079288;28;45324;-82
2024/02/16 11:08:28;;;;;;;;;0.00;0.00;;;;;17.24;100.00;101474.16;5078924;28;45451;-80
2024/02/16 11:11:00;;;;;;;;;0.00;0.00;;;;;17.29;100.00;101473.03;5078910;27;46570;-80